createdAt,value
2019-01-21T00:00:35.470Z,1006.85
2019-01-21T00:01:34.023Z,1006.76
2019-01-21T00:02:32.537Z,1006.78
2019-01-21T00:03:31.108Z,1006.79
2019-01-21T00:04:29.969Z,1006.85
2019-01-21T00:05:28.521Z,1006.79
2019-01-21T00:06:27.061Z,1006.8
2019-01-21T00:07:25.880Z,1006.85
2019-01-21T00:08:24.422Z,1006.8
2019-01-21T00:09:22.939Z,1006.81
2019-01-21T00:12:03.373Z,1006.86
2019-01-21T00:13:02.260Z,1006.85
2019-01-21T00:14:00.806Z,1006.86
2019-01-21T00:14:59.474Z,1006.95
2019-01-21T00:15:58.047Z,1006.89
2019-01-21T00:16:56.862Z,1006.93
2019-01-21T00:17:55.381Z,1006.91
2019-01-21T00:18:54.051Z,1006.9
2019-01-21T00:19:52.583Z,1006.89
2019-01-21T00:20:51.130Z,1006.95
2019-01-21T00:23:31.596Z,1006.93
2019-01-21T00:24:30.115Z,1007.03
2019-01-21T00:25:28.700Z,1006.99
2019-01-21T00:26:27.233Z,1007.01
2019-01-21T00:27:26.098Z,1006.96
2019-01-21T00:28:24.639Z,1007.11
2019-01-21T00:29:23.164Z,1007.1
2019-01-21T00:30:22.062Z,1006.99
2019-01-21T00:31:20.578Z,1007.03
2019-01-21T00:32:19.097Z,1007.03
2019-01-21T00:33:17.647Z,1006.95
2019-01-21T00:35:58.092Z,1006.97
2019-01-21T00:37:03.258Z,1007
2019-01-21T00:37:55.166Z,1007.03
2019-01-21T00:40:35.721Z,1006.96
2019-01-21T00:41:34.601Z,1007
2019-01-21T00:42:33.127Z,1007.07
2019-01-21T00:43:32.020Z,1007
2019-01-21T00:44:30.591Z,1006.97
2019-01-21T00:45:29.135Z,1006.98
2019-01-21T00:46:27.692Z,1006.94
2019-01-21T00:47:29.912Z,1006.95
2019-01-21T00:48:25.653Z,1006.98
2019-01-21T00:49:24.200Z,1007.04
2019-01-21T00:50:22.726Z,1007.04
2019-01-21T00:51:21.247Z,1007.1
2019-01-21T00:52:19.788Z,1007.01
2019-01-21T00:53:18.513Z,1007.1
2019-01-21T00:54:17.035Z,1007.07
2019-01-21T00:55:15.776Z,1007.06
2019-01-21T00:56:14.467Z,1007.06
2019-01-21T00:57:13.005Z,1007.04
2019-01-21T00:58:11.806Z,1007.07
2019-01-21T00:59:10.438Z,1007.15
2019-01-21T01:00:08.995Z,1007.1
2019-01-21T01:01:07.497Z,1007.12
2019-01-21T01:02:06.035Z,1007.06
2019-01-21T01:03:04.589Z,1007.14
2019-01-21T01:04:03.103Z,1007.05
2019-01-21T01:05:01.946Z,1007.04
2019-01-21T01:06:00.470Z,1007.02
2019-01-21T01:06:59.040Z,1007.09
2019-01-21T01:07:58.038Z,1007.13
2019-01-21T01:08:56.586Z,1007.12
2019-01-21T01:09:55.134Z,1007.16
2019-01-21T01:10:53.681Z,1007.15
2019-01-21T01:11:52.250Z,1007.08
2019-01-21T01:12:50.787Z,1007.13
2019-01-21T01:13:49.400Z,1007.13
2019-01-21T01:14:48.144Z,1007.2
2019-01-21T01:15:46.682Z,1007.2
2019-01-21T01:18:26.879Z,1007.15
2019-01-21T01:19:25.541Z,1007.19
2019-01-21T01:20:24.111Z,1007.16
2019-01-21T01:21:22.631Z,1007.21
2019-01-21T01:22:21.212Z,1007.26
2019-01-21T01:23:19.756Z,1007.18
2019-01-21T01:24:18.355Z,1007.18
2019-01-21T01:25:16.875Z,1007.18
2019-01-21T01:26:15.840Z,1007.23
2019-01-21T01:27:14.469Z,1007.22
2019-01-21T01:28:13.057Z,1007.21
2019-01-21T01:29:11.737Z,1007.19
2019-01-21T01:30:10.293Z,1007.27
2019-01-21T01:31:08.848Z,1007.3
2019-01-21T01:32:07.408Z,1007.3
2019-01-21T01:33:05.927Z,1007.31
2019-01-21T01:34:04.473Z,1007.31
2019-01-21T01:35:03.299Z,1007.28
2019-01-21T01:46:49.947Z,1007.43
2019-01-21T01:47:48.493Z,1007.38
2019-01-21T01:48:47.032Z,1007.38
2019-01-21T01:49:45.596Z,1007.39
2019-01-21T01:50:44.140Z,1007.41
2019-01-21T01:51:42.684Z,1007.4
2019-01-21T01:52:41.215Z,1007.41
2019-01-21T01:53:39.729Z,1007.39
2019-01-21T01:54:38.303Z,1007.39
2019-01-21T01:55:36.860Z,1007.47
2019-01-21T01:56:35.569Z,1007.4
2019-01-21T01:57:34.176Z,1007.4
2019-01-21T01:58:33.700Z,1007.41
2019-01-21T01:59:32.400Z,1007.42
2019-01-21T02:00:30.940Z,1007.42
2019-01-21T02:01:29.665Z,1007.42
2019-01-21T02:04:10.122Z,1007.38
2019-01-21T02:05:08.654Z,1007.38
2019-01-21T02:06:07.210Z,1007.42
2019-01-21T02:07:06.172Z,1007.39
2019-01-21T02:08:04.735Z,1007.42
2019-01-21T02:09:03.465Z,1007.41
2019-01-21T02:10:02.289Z,1007.4
2019-01-21T02:11:00.813Z,1007.39
2019-01-21T02:11:59.681Z,1007.41
2019-01-21T02:12:58.216Z,1007.38
2019-01-21T02:13:56.755Z,1007.43
2019-01-21T02:14:55.363Z,1007.36
2019-01-21T02:15:54.066Z,1007.42
2019-01-21T02:16:52.600Z,1007.36
2019-01-21T02:17:52.106Z,1007.34
2019-01-21T02:18:49.873Z,1007.35
2019-01-21T02:19:48.583Z,1007.36
2019-01-21T02:20:47.288Z,1007.33
2019-01-21T02:21:45.873Z,1007.37
2019-01-21T02:33:06.918Z,1007.4
2019-01-21T02:34:05.406Z,1007.43
2019-01-21T02:35:04.170Z,1007.45
2019-01-21T02:36:02.693Z,1007.42
2019-01-21T02:37:01.232Z,1007.43
2019-01-21T02:38:00.171Z,1007.38
2019-01-21T02:38:58.709Z,1007.4
2019-01-21T02:39:57.402Z,1007.45
2019-01-21T02:40:55.792Z,1007.45
2019-01-21T02:41:54.348Z,1007.41
2019-01-21T02:42:52.883Z,1007.37
2019-01-21T02:43:51.399Z,1007.42
2019-01-21T02:44:49.936Z,1007.37
2019-01-21T02:45:48.505Z,1007.4
2019-01-21T02:46:47.049Z,1007.41
2019-01-21T02:47:45.912Z,1007.38
2019-01-21T02:48:44.575Z,1007.44
2019-01-21T02:49:43.107Z,1007.32
2019-01-21T02:50:41.749Z,1007.3
2019-01-21T02:51:40.325Z,1007.44
2019-01-21T02:52:38.885Z,1007.37
2019-01-21T02:53:37.476Z,1007.37
2019-01-21T02:54:36.160Z,1007.37
2019-01-21T02:55:35.274Z,1007.4
2019-01-21T02:56:33.968Z,1007.37
2019-01-21T02:57:32.486Z,1007.39
2019-01-21T02:58:31.016Z,1007.39
2019-01-21T03:01:11.149Z,1007.48
2019-01-21T03:02:09.843Z,1007.43
2019-01-21T03:03:08.436Z,1007.4
2019-01-21T03:04:06.954Z,1007.48
2019-01-21T03:05:05.591Z,1007.43
2019-01-21T03:06:04.392Z,1007.45
2019-01-21T03:07:02.899Z,1007.41
2019-01-21T03:08:01.591Z,1007.4
2019-01-21T03:09:00.128Z,1007.41
2019-01-21T03:09:58.653Z,1007.42
2019-01-21T03:10:57.249Z,1007.38
2019-01-21T03:11:55.790Z,1007.4
2019-01-21T03:14:36.131Z,1007.38
2019-01-21T03:15:34.678Z,1007.39
2019-01-21T03:16:33.236Z,1007.37
2019-01-21T03:17:32.133Z,1007.39
2019-01-21T03:18:30.733Z,1007.38
2019-01-21T03:19:29.263Z,1007.37
2019-01-21T03:20:27.828Z,1007.38
2019-01-21T03:21:26.366Z,1007.41
2019-01-21T03:22:24.911Z,1007.38
2019-01-21T03:23:23.780Z,1007.37
2019-01-21T03:24:22.508Z,1007.42
2019-01-21T03:25:21.104Z,1007.38
2019-01-21T03:26:19.789Z,1007.4
2019-01-21T03:27:18.319Z,1007.38
2019-01-21T03:28:16.859Z,1007.41
2019-01-21T03:29:15.402Z,1007.41
2019-01-21T03:30:13.945Z,1007.43
2019-01-21T03:31:12.476Z,1007.41
2019-01-21T03:33:35.324Z,1007.4
2019-01-21T03:34:34.132Z,1007.39
2019-01-21T03:35:32.656Z,1007.37
2019-01-21T03:36:31.342Z,1007.38
2019-01-21T03:37:29.870Z,1007.33
2019-01-21T03:38:28.477Z,1007.42
2019-01-21T03:39:27.035Z,1007.37
2019-01-21T03:40:25.858Z,1007.39
2019-01-21T03:41:24.597Z,1007.37
2019-01-21T03:42:23.263Z,1007.37
2019-01-21T03:43:21.950Z,1007.4
2019-01-21T03:44:20.480Z,1007.42
2019-01-21T03:45:19.039Z,1007.42
2019-01-21T03:46:17.571Z,1007.45
2019-01-21T03:47:16.117Z,1007.42
2019-01-21T03:48:16.587Z,1007.45
2019-01-21T03:49:13.212Z,1007.37
2019-01-21T03:50:12.028Z,1007.45
2019-01-21T03:51:10.594Z,1007.47
2019-01-21T03:52:09.131Z,1007.43
2019-01-21T03:53:08.008Z,1007.46
2019-01-21T03:54:06.704Z,1007.39
2019-01-21T03:55:05.225Z,1007.45
2019-01-21T03:56:03.790Z,1007.49
2019-01-21T03:57:02.291Z,1007.41
2019-01-21T03:58:00.815Z,1007.48
2019-01-21T03:58:59.373Z,1007.52
2019-01-21T03:59:58.282Z,1007.46
2019-01-21T04:00:56.820Z,1007.48
2019-01-21T04:01:57.523Z,1007.49
2019-01-21T04:02:56.152Z,1007.5
2019-01-21T04:03:54.686Z,1007.48
2019-01-21T04:04:53.249Z,1007.51
2019-01-21T04:05:51.785Z,1007.45
2019-01-21T04:06:50.361Z,1007.47
2019-01-21T04:07:48.921Z,1007.45
2019-01-21T04:08:47.785Z,1007.47
2019-01-21T04:09:46.454Z,1007.45
2019-01-21T04:10:44.978Z,1007.44
2019-01-21T04:11:43.757Z,1007.48
2019-01-21T04:12:42.319Z,1007.42
2019-01-21T04:13:40.849Z,1007.41
2019-01-21T04:14:39.412Z,1007.43
2019-01-21T04:15:37.971Z,1007.4
2019-01-21T04:16:36.535Z,1007.42
2019-01-21T04:17:35.036Z,1007.49
2019-01-21T04:18:33.563Z,1007.41
2019-01-21T04:19:32.093Z,1007.42
2019-01-21T04:20:31.769Z,1007.42
2019-01-21T04:23:10.643Z,1007.4
2019-01-21T04:24:09.189Z,1007.39
2019-01-21T04:25:10.426Z,1007.41
2019-01-21T04:26:09.017Z,1007.41
2019-01-21T04:27:07.582Z,1007.44
2019-01-21T04:28:06.117Z,1007.45
2019-01-21T04:29:04.665Z,1007.4
2019-01-21T04:30:03.196Z,1007.47
2019-01-21T04:31:01.732Z,1007.51
2019-01-21T04:51:48.379Z,1007.63
2019-01-21T04:52:46.945Z,1007.64
2019-01-21T04:53:47.515Z,1007.65
2019-01-21T04:54:44.310Z,1007.65
2019-01-21T04:55:42.908Z,1007.67
2019-01-21T04:56:41.592Z,1007.68
2019-01-21T04:57:40.176Z,1007.69
2019-01-21T04:58:38.719Z,1007.68
2019-01-21T04:59:37.288Z,1007.75
2019-01-21T05:00:36.144Z,1007.72
2019-01-21T05:01:34.697Z,1007.71
2019-01-21T05:02:33.220Z,1007.74
2019-01-21T05:03:32.088Z,1007.74
2019-01-21T05:04:30.622Z,1007.73
2019-01-21T05:05:29.165Z,1007.67
2019-01-21T05:06:27.724Z,1007.73
2019-01-21T05:07:26.244Z,1007.7
2019-01-21T05:08:24.811Z,1007.8
2019-01-21T05:09:23.323Z,1007.75
2019-01-21T05:10:21.855Z,1007.72
2019-01-21T05:11:20.551Z,1007.75
2019-01-21T05:12:19.098Z,1007.72
2019-01-21T05:13:17.865Z,1007.71
2019-01-21T05:14:16.545Z,1007.75
2019-01-21T05:15:15.062Z,1007.69
2019-01-21T05:17:55.537Z,1007.67
2019-01-21T05:18:54.274Z,1007.66
2019-01-21T05:19:54.835Z,1007.68
2019-01-21T05:20:53.633Z,1007.69
2019-01-21T05:21:52.170Z,1007.71
2019-01-21T05:22:50.700Z,1007.67
2019-01-21T05:23:49.301Z,1007.69
2019-01-21T05:24:47.887Z,1007.68
2019-01-21T05:25:46.446Z,1007.71
2019-01-21T05:26:45.019Z,1007.76
2019-01-21T05:27:43.577Z,1007.76
2019-01-21T05:28:42.293Z,1007.75
2019-01-21T05:29:40.836Z,1007.81
2019-01-21T05:30:42.369Z,1007.79
2019-01-21T05:31:40.897Z,1007.76
2019-01-21T05:35:19.749Z,1007.91
2019-01-21T05:36:18.295Z,1007.83
2019-01-21T05:38:41.475Z,1007.94
2019-01-21T05:39:40.213Z,1007.92
2019-01-21T05:40:38.811Z,1007.93
2019-01-21T05:41:37.343Z,1007.93
2019-01-21T05:42:35.899Z,1007.93
2019-01-21T05:43:34.430Z,1007.9
2019-01-21T05:44:32.960Z,1007.86
2019-01-21T05:47:05.973Z,1007.89
2019-01-21T05:48:04.510Z,1007.88
2019-01-21T05:49:03.050Z,1007.87
2019-01-21T05:50:01.568Z,1007.97
2019-01-21T05:51:00.128Z,1007.92
2019-01-21T05:51:58.672Z,1007.91
2019-01-21T05:52:57.220Z,1007.86
2019-01-21T05:53:55.855Z,1007.88
2019-01-21T05:54:54.485Z,1007.89
2019-01-21T05:55:53.105Z,1007.91
2019-01-21T05:56:51.938Z,1007.85
2019-01-21T05:57:50.710Z,1007.88
2019-01-21T05:58:49.259Z,1007.93
2019-01-21T05:59:47.790Z,1007.94
2019-01-21T06:00:46.573Z,1007.95
2019-01-21T06:01:45.092Z,1007.97
2019-01-21T06:02:43.736Z,1007.94
2019-01-21T06:03:42.784Z,1007.93
2019-01-21T06:04:41.352Z,1007.95
2019-01-21T06:05:39.899Z,1007.92
2019-01-21T06:06:38.448Z,1007.93
2019-01-21T06:07:36.988Z,1007.97
2019-01-21T06:08:35.808Z,1007.95
2019-01-21T06:09:34.515Z,1007.96
2019-01-21T06:10:33.063Z,1007.99
2019-01-21T06:11:31.783Z,1008.01
2019-01-21T06:12:30.309Z,1008.03
2019-01-21T06:13:28.840Z,1008.1
2019-01-21T06:14:27.424Z,1008.1
2019-01-21T06:15:25.995Z,1008.08
2019-01-21T06:16:24.772Z,1008.12
2019-01-21T06:17:23.328Z,1008.16
2019-01-21T06:18:22.008Z,1008.18
2019-01-21T06:19:20.667Z,1008.14
2019-01-21T06:20:19.216Z,1008.22
2019-01-21T06:21:17.898Z,1008.24
2019-01-21T06:22:16.882Z,1008.24
2019-01-21T06:23:15.556Z,1008.16
2019-01-21T06:24:14.322Z,1008.19
2019-01-21T06:25:12.886Z,1008.21
2019-01-21T06:26:11.535Z,1008.23
2019-01-21T06:27:10.129Z,1008.19
2019-01-21T06:28:08.723Z,1008.2
2019-01-21T06:29:07.233Z,1008.24
2019-01-21T06:30:05.796Z,1008.21
2019-01-21T06:31:04.518Z,1008.19
2019-01-21T06:32:03.127Z,1008.16
2019-01-21T06:33:02.150Z,1008.19
2019-01-21T06:34:00.736Z,1008.17
2019-01-21T06:34:59.282Z,1008.13
2019-01-21T06:35:57.803Z,1008.16
2019-01-21T06:36:56.351Z,1008.14
2019-01-21T06:37:54.932Z,1008.22
2019-01-21T06:38:53.472Z,1008.28
2019-01-21T06:39:52.270Z,1008.25
2019-01-21T06:40:50.864Z,1008.28
2019-01-21T06:41:49.528Z,1008.27
2019-01-21T06:42:48.256Z,1008.28
2019-01-21T06:43:47.047Z,1008.33
2019-01-21T06:46:22.065Z,1008.32
2019-01-21T06:49:04.706Z,1008.29
2019-01-21T06:50:01.168Z,1008.35
2019-01-21T06:50:59.860Z,1008.4
2019-01-21T06:51:58.446Z,1008.39
2019-01-21T06:52:56.978Z,1008.44
2019-01-21T06:53:55.504Z,1008.46
2019-01-21T06:54:54.056Z,1008.42
2019-01-21T06:55:52.582Z,1008.43
2019-01-21T06:56:51.239Z,1008.41
2019-01-21T07:17:21.073Z,1008.65
2019-01-21T07:18:19.836Z,1008.64
2019-01-21T07:19:18.513Z,1008.65
2019-01-21T07:20:17.076Z,1008.67
2019-01-21T07:21:15.850Z,1008.65
2019-01-21T07:22:14.413Z,1008.69
2019-01-21T07:23:12.946Z,1008.7
2019-01-21T07:25:53.018Z,1008.65
2019-01-21T07:26:51.869Z,1008.69
2019-01-21T07:27:50.636Z,1008.72
2019-01-21T07:28:49.274Z,1008.68
2019-01-21T07:29:47.959Z,1008.73
2019-01-21T07:30:46.544Z,1008.74
2019-01-21T07:31:45.099Z,1008.76
2019-01-21T07:34:25.524Z,1008.73
2019-01-21T07:35:24.304Z,1008.72
2019-01-21T07:56:25.482Z,1008.94
2019-01-21T07:57:24.039Z,1008.93
2019-01-21T07:58:22.657Z,1008.99
2019-01-21T07:59:21.248Z,1008.96
2019-01-21T08:00:20.033Z,1008.94
2019-01-21T08:01:18.770Z,1008.97
2019-01-21T08:02:17.568Z,1008.92
2019-01-21T08:03:16.139Z,1008.95
2019-01-21T08:04:14.684Z,1008.9
2019-01-21T08:05:13.342Z,1008.89
2019-01-21T08:06:12.144Z,1008.95
2019-01-21T08:07:10.676Z,1008.91
2019-01-21T08:08:09.253Z,1008.93
2019-01-21T08:09:08.050Z,1008.96
2019-01-21T08:10:06.591Z,1008.93
2019-01-21T08:11:05.155Z,1008.84
2019-01-21T08:12:03.715Z,1008.9
2019-01-21T08:13:02.254Z,1008.84
2019-01-21T08:14:00.795Z,1008.77
2019-01-21T08:14:59.341Z,1008.84
2019-01-21T08:15:57.958Z,1008.83
2019-01-21T08:16:56.765Z,1008.82
2019-01-21T08:17:55.328Z,1008.77
2019-01-21T08:18:54.246Z,1008.81
2019-01-21T08:19:52.792Z,1008.86
2019-01-21T08:20:51.335Z,1008.8
2019-01-21T08:21:49.928Z,1008.8
2019-01-21T08:22:48.476Z,1008.87
2019-01-21T08:23:47.051Z,1008.84
2019-01-21T08:24:45.838Z,1008.85
2019-01-21T08:25:44.604Z,1008.84
2019-01-21T08:26:43.133Z,1008.84
2019-01-21T08:27:41.755Z,1008.88
2019-01-21T08:30:21.908Z,1008.92
2019-01-21T08:31:20.458Z,1008.83
2019-01-21T08:32:18.977Z,1008.81
2019-01-21T08:33:17.506Z,1008.81
2019-01-21T08:34:16.021Z,1008.84
2019-01-21T08:35:14.550Z,1008.86
2019-01-21T08:36:13.101Z,1008.87
2019-01-21T08:37:11.638Z,1008.86
2019-01-21T08:38:10.201Z,1008.83
2019-01-21T08:39:08.728Z,1008.82
2019-01-21T08:41:49.127Z,1008.87
2019-01-21T08:44:29.331Z,1008.77
2019-01-21T08:45:27.952Z,1008.76
2019-01-21T08:46:26.498Z,1008.85
2019-01-21T08:47:25.082Z,1008.8
2019-01-21T08:48:23.600Z,1008.8
2019-01-21T08:49:22.159Z,1008.83
2019-01-21T08:50:20.700Z,1008.84
2019-01-21T08:51:19.289Z,1008.85
2019-01-21T08:53:42.141Z,1008.89
2019-01-21T08:54:40.662Z,1008.9
2019-01-21T08:57:20.821Z,1008.97
2019-01-21T08:58:19.363Z,1009.06
2019-01-21T08:59:17.967Z,1009.02
2019-01-21T09:00:19.402Z,1009.02
2019-01-21T09:01:17.989Z,1009.13
2019-01-21T09:02:16.530Z,1009
2019-01-21T09:03:15.071Z,1009
2019-01-21T09:04:13.841Z,1009
2019-01-21T09:05:12.485Z,1008.99
2019-01-21T09:09:00.753Z,1009
2019-01-21T09:09:59.271Z,1008.99
2019-01-21T09:10:58.144Z,1009.01
2019-01-21T09:11:56.729Z,1008.99
2019-01-21T09:12:55.261Z,1009
2019-01-21T09:13:53.817Z,1008.97
2019-01-21T09:14:52.553Z,1009.04
2019-01-21T09:15:51.116Z,1009.09
2019-01-21T09:16:49.792Z,1009.06
2019-01-21T09:17:48.553Z,1009.05
2019-01-21T09:18:47.111Z,1009.1
2019-01-21T09:19:45.820Z,1009.1
2019-01-21T09:20:44.475Z,1009.11
2019-01-21T09:21:43.033Z,1009.13
2019-01-21T09:22:41.626Z,1009.16
2019-01-21T09:23:40.428Z,1009.14
2019-01-21T09:24:39.004Z,1009.16
2019-01-21T09:25:37.861Z,1009.14
2019-01-21T09:26:36.391Z,1009.17
2019-01-21T09:27:34.946Z,1009.15
2019-01-21T09:31:14.386Z,1009.2
2019-01-21T09:32:12.933Z,1009.16
2019-01-21T09:33:11.469Z,1009.22
2019-01-21T09:34:10.059Z,1009.2
2019-01-21T09:35:08.600Z,1009.19
2019-01-21T09:36:07.171Z,1009.18
2019-01-21T09:37:06.473Z,1009.25
2019-01-21T09:38:05.074Z,1009.17
2019-01-21T09:39:03.622Z,1009.21
2019-01-21T09:40:02.357Z,1009.19
2019-01-21T09:41:00.911Z,1009.17
2019-01-21T09:41:59.522Z,1009.22
2019-01-21T09:42:58.138Z,1009.18
2019-01-21T09:43:56.852Z,1009.15
2019-01-21T09:44:55.497Z,1009.21
2019-01-21T09:45:54.145Z,1009.26
2019-01-21T09:46:52.890Z,1009.21
2019-01-21T09:47:51.574Z,1009.27
2019-01-21T09:59:34.689Z,1009.26
2019-01-21T10:00:33.226Z,1009.26
2019-01-21T10:01:31.995Z,1009.26
2019-01-21T10:02:30.635Z,1009.26
2019-01-21T10:03:29.159Z,1009.27
2019-01-21T10:04:27.937Z,1009.31
2019-01-21T10:05:26.463Z,1009.23
2019-01-21T10:06:25.058Z,1009.24
2019-01-21T10:07:23.617Z,1009.27
2019-01-21T10:08:22.184Z,1009.21
2019-01-21T10:09:20.742Z,1009.24
2019-01-21T10:12:01.174Z,1009.26
2019-01-21T10:13:00.021Z,1009.28
2019-01-21T10:13:58.613Z,1009.2
2019-01-21T10:14:57.124Z,1009.2
2019-01-21T10:15:55.881Z,1009.2
2019-01-21T10:16:54.498Z,1009.15
2019-01-21T10:17:53.184Z,1009.19
2019-01-21T10:18:51.657Z,1009.2
2019-01-21T10:19:51.404Z,1009.2
2019-01-21T10:20:49.788Z,1009.13
2019-01-21T10:21:47.622Z,1009.13
2019-01-21T10:22:46.187Z,1009.19
2019-01-21T10:23:44.706Z,1009.12
2019-01-21T10:24:43.218Z,1009.15
2019-01-21T10:25:41.792Z,1009.19
2019-01-21T10:26:40.342Z,1009.13
2019-01-21T10:27:38.877Z,1009.22
2019-01-21T10:28:37.415Z,1009.16
2019-01-21T10:31:18.126Z,1009.15
2019-01-21T10:32:16.666Z,1009.18
2019-01-21T10:33:15.233Z,1009.2
2019-01-21T10:34:13.756Z,1009.19
2019-01-21T10:35:12.320Z,1009.16
2019-01-21T10:38:50.964Z,1009.17
2019-01-21T10:39:49.692Z,1009.25
2019-01-21T10:40:48.289Z,1009.21
2019-01-21T10:44:09.625Z,1009.17
2019-01-21T10:45:08.171Z,1009.24
2019-01-21T10:46:06.700Z,1009.19
2019-01-21T10:47:05.231Z,1009.18
2019-01-21T10:48:03.823Z,1009.14
2019-01-21T10:49:02.607Z,1009.09
2019-01-21T10:50:01.144Z,1009.13
2019-01-21T10:50:59.783Z,1009.14
2019-01-21T10:51:58.601Z,1009.14
2019-01-21T10:52:57.171Z,1009.11
2019-01-21T10:53:55.797Z,1009.13
2019-01-21T10:54:54.350Z,1009.05
2019-01-21T10:55:52.889Z,1009.07
2019-01-21T10:56:51.448Z,1009.06
2019-01-21T10:57:49.986Z,1009.04
2019-01-21T10:58:48.604Z,1009.08
2019-01-21T10:59:47.105Z,1009.03
2019-01-21T11:02:27.147Z,1009.02
2019-01-21T11:05:07.681Z,1009.02
2019-01-21T11:06:06.347Z,1008.95
2019-01-21T11:09:44.953Z,1008.97
2019-01-21T11:10:43.476Z,1009.02
2019-01-21T11:11:42.336Z,1008.97
2019-01-21T11:12:40.837Z,1008.98
2019-01-21T11:13:39.399Z,1008.96
2019-01-21T11:14:38.355Z,1008.92
2019-01-21T11:15:36.891Z,1008.94
2019-01-21T11:16:35.473Z,1008.92
2019-01-21T11:17:34.020Z,1008.9
2019-01-21T11:21:14.293Z,1008.94
2019-01-21T11:22:12.933Z,1008.89
2019-01-21T11:23:11.484Z,1008.97
2019-01-21T11:24:10.114Z,1008.97
2019-01-21T11:26:50.443Z,1008.91
2019-01-21T11:29:42.490Z,1008.95
2019-01-21T11:30:41.075Z,1008.95
2019-01-21T11:31:39.755Z,1008.97
2019-01-21T11:32:38.536Z,1009
2019-01-21T11:33:37.112Z,1009.07
2019-01-21T11:34:35.890Z,1008.98
2019-01-21T11:35:34.456Z,1008.99
2019-01-21T11:36:33.028Z,1009
2019-01-21T11:37:31.555Z,1008.96
2019-01-21T11:40:11.680Z,1008.98
2019-01-21T11:41:10.204Z,1009.01
2019-01-21T11:42:08.747Z,1008.97
2019-01-21T11:43:07.310Z,1008.94
2019-01-21T11:44:05.914Z,1008.87
2019-01-21T11:45:04.537Z,1008.88
2019-01-21T11:46:03.057Z,1008.88
2019-01-21T11:47:01.640Z,1008.88
2019-01-21T11:48:00.446Z,1008.84
2019-01-21T11:48:59.010Z,1008.88
2019-01-21T11:49:57.658Z,1008.84
2019-01-21T11:50:56.234Z,1008.85
2019-01-21T11:51:54.752Z,1008.88
2019-01-21T11:52:53.293Z,1008.93
2019-01-21T11:53:51.843Z,1008.91
2019-01-21T11:54:50.429Z,1008.89
2019-01-21T11:55:48.957Z,1008.78
2019-01-21T11:56:47.482Z,1008.79
2019-01-21T11:57:46.083Z,1008.73
2019-01-21T11:58:44.806Z,1008.74
2019-01-21T11:59:43.353Z,1008.76
2019-01-21T12:00:42.305Z,1008.75
2019-01-21T12:01:40.816Z,1008.78
2019-01-21T12:02:39.344Z,1008.75
2019-01-21T12:03:37.884Z,1008.74
2019-01-21T12:04:36.436Z,1008.73
2019-01-21T12:05:34.974Z,1008.71
2019-01-21T12:06:33.523Z,1008.68
2019-01-21T12:07:32.078Z,1008.72
2019-01-21T12:08:30.606Z,1008.59
2019-01-21T12:09:29.143Z,1008.6
2019-01-21T12:10:27.840Z,1008.6
2019-01-21T12:11:26.598Z,1008.53
2019-01-21T12:12:25.105Z,1008.49
2019-01-21T12:13:23.648Z,1008.5
2019-01-21T12:14:22.500Z,1008.56
2019-01-21T12:15:21.070Z,1008.53
2019-01-21T12:16:20.008Z,1008.55
2019-01-21T12:17:18.575Z,1008.53
2019-01-21T12:18:17.121Z,1008.47
2019-01-21T12:19:15.701Z,1008.53
2019-01-21T12:20:17.100Z,1008.51
2019-01-21T12:21:13.094Z,1008.44
2019-01-21T12:22:11.710Z,1008.42
2019-01-21T12:23:10.359Z,1008.49
2019-01-21T12:24:08.906Z,1008.45
2019-01-21T12:25:07.453Z,1008.4
2019-01-21T12:26:06.305Z,1008.45
2019-01-21T12:27:04.852Z,1008.47
2019-01-21T12:28:03.401Z,1008.37
2019-01-21T12:29:02.273Z,1008.35
2019-01-21T12:30:00.857Z,1008.39
2019-01-21T12:30:59.350Z,1008.37
2019-01-21T12:31:57.903Z,1008.39
2019-01-21T12:32:56.448Z,1008.4
2019-01-21T12:33:54.991Z,1008.36
2019-01-21T12:34:53.548Z,1008.36
2019-01-21T12:35:52.058Z,1008.41
2019-01-21T12:36:50.644Z,1008.4
2019-01-21T12:37:49.170Z,1008.31
2019-01-21T12:38:47.977Z,1008.35
2019-01-21T12:39:46.680Z,1008.31
2019-01-21T12:40:45.362Z,1008.36
2019-01-21T12:41:44.015Z,1008.34
2019-01-21T12:42:42.540Z,1008.37
2019-01-21T12:43:41.063Z,1008.37
2019-01-21T12:44:39.606Z,1008.37
2019-01-21T12:45:38.145Z,1008.37
2019-01-21T12:46:36.670Z,1008.4
2019-01-21T12:47:35.250Z,1008.38
2019-01-21T12:48:33.804Z,1008.4
2019-01-21T12:49:32.354Z,1008.31
2019-01-21T12:50:30.893Z,1008.29
2019-01-21T12:51:29.487Z,1008.28
2019-01-21T12:52:28.244Z,1008.25
2019-01-21T12:53:26.847Z,1008.22
2019-01-21T12:54:25.416Z,1008.2
2019-01-21T12:55:24.229Z,1008.17
2019-01-21T12:56:22.810Z,1008.22
2019-01-21T12:57:21.374Z,1008.2
2019-01-21T12:58:19.899Z,1008.2
2019-01-21T12:59:18.425Z,1008.15
2019-01-21T13:00:16.946Z,1008.16
2019-01-21T13:01:15.472Z,1008.12
2019-01-21T13:02:14.021Z,1008.15
2019-01-21T13:03:12.554Z,1008.12
2019-01-21T13:04:11.091Z,1008.09
2019-01-21T13:05:09.654Z,1008.13
2019-01-21T13:06:08.186Z,1008.06
2019-01-21T13:07:06.726Z,1008.04
2019-01-21T13:08:05.281Z,1008.07
2019-01-21T13:09:03.867Z,1008.05
2019-01-21T13:10:02.571Z,1008.07
2019-01-21T13:11:01.120Z,1008.06
2019-01-21T13:11:59.755Z,1008.03
2019-01-21T13:12:58.395Z,1008.05
2019-01-21T13:13:56.851Z,1008.08
2019-01-21T13:14:55.506Z,1008.06
2019-01-21T13:15:54.136Z,1008.06
2019-01-21T13:16:52.687Z,1008.06
2019-01-21T13:17:51.246Z,1008.01
2019-01-21T13:18:49.813Z,1008.01
2019-01-21T13:19:48.457Z,1007.98
2019-01-21T13:20:46.974Z,1007.98
2019-01-21T13:21:45.564Z,1007.96
2019-01-21T13:22:44.257Z,1008.02
2019-01-21T13:23:42.850Z,1008.02
2019-01-21T13:24:41.407Z,1007.97
2019-01-21T13:25:40.237Z,1007.98
2019-01-21T13:26:38.806Z,1007.95
2019-01-21T13:27:37.328Z,1007.97
2019-01-21T13:28:35.852Z,1007.93
2019-01-21T13:29:34.382Z,1007.96
2019-01-21T13:30:32.939Z,1007.95
2019-01-21T13:31:31.435Z,1007.94
2019-01-21T13:32:30.116Z,1007.95
2019-01-21T13:33:28.793Z,1007.9
2019-01-21T13:34:27.331Z,1007.9
2019-01-21T13:35:26.000Z,1007.89
2019-01-21T13:36:24.651Z,1007.88
2019-01-21T13:37:23.182Z,1007.84
2019-01-21T13:38:21.884Z,1007.86
2019-01-21T13:39:20.480Z,1007.87
2019-01-21T13:40:19.024Z,1007.79
2019-01-21T13:41:17.594Z,1007.76
2019-01-21T13:42:16.179Z,1007.75
2019-01-21T13:43:14.739Z,1007.8
2019-01-21T13:44:13.288Z,1007.78
2019-01-21T13:45:12.170Z,1007.78
2019-01-21T13:46:10.858Z,1007.84
2019-01-21T13:47:09.382Z,1007.81
2019-01-21T13:48:08.110Z,1007.79
2019-01-21T13:49:06.699Z,1007.86
2019-01-21T13:50:05.216Z,1007.79
2019-01-21T13:51:03.766Z,1007.81
2019-01-21T13:52:02.315Z,1007.81
2019-01-21T13:53:00.857Z,1007.86
2019-01-21T13:53:59.404Z,1007.81
2019-01-21T13:54:57.989Z,1007.81
2019-01-21T13:55:56.662Z,1007.79
2019-01-21T13:56:55.290Z,1007.73
2019-01-21T13:57:54.018Z,1007.74
2019-01-21T13:58:52.681Z,1007.72
2019-01-21T13:59:51.289Z,1007.75
2019-01-21T14:00:49.907Z,1007.75
2019-01-21T14:01:48.467Z,1007.75
2019-01-21T14:02:46.982Z,1007.77
2019-01-21T14:03:45.486Z,1007.74
2019-01-21T14:04:44.066Z,1007.69
2019-01-21T14:05:42.578Z,1007.69
2019-01-21T14:06:41.149Z,1007.67
2019-01-21T14:07:39.706Z,1007.66
2019-01-21T14:08:38.492Z,1007.62
2019-01-21T14:09:37.018Z,1007.62
2019-01-21T14:10:35.593Z,1007.64
2019-01-21T14:11:34.441Z,1007.66
2019-01-21T14:12:32.977Z,1007.65
2019-01-21T14:15:13.428Z,1007.59
2019-01-21T14:16:12.013Z,1007.6
2019-01-21T14:17:10.702Z,1007.64
2019-01-21T14:18:09.224Z,1007.59
2019-01-21T14:19:07.997Z,1007.65
2019-01-21T14:20:06.529Z,1007.57
2019-01-21T14:21:05.077Z,1007.58
2019-01-21T14:22:03.609Z,1007.54
2019-01-21T14:23:02.132Z,1007.56
2019-01-21T14:25:24.847Z,1007.45
2019-01-21T14:26:23.384Z,1007.46
2019-01-21T14:27:22.099Z,1007.43
2019-01-21T14:28:20.817Z,1007.43
2019-01-21T14:29:19.388Z,1007.44
2019-01-21T14:30:18.074Z,1007.43
2019-01-21T14:31:16.631Z,1007.48
2019-01-21T14:33:51.636Z,1007.45
2019-01-21T14:34:50.208Z,1007.46